Martin State Airport
KMTN : now visible

Airfield :











YOU CAN JOIN US ON...

 
LOGIN :

Register | Disclaimer

   EN    FR    IT 

 









Legend :    VFR   Marginal VFR   IFR   Intensive IFR   Very Intensive IFR
Visi :
Ceiling :
>= 8 km
>= 3000ft
5 to 8 km
1000 to 3000 ft
1500m to 5 km
500 to 1000 ft
800 to 1500m
200 to 500 ft
< 800m
< 200 ft
Symbols :   Thunderstorms  Fog  Heavy snow  Heavy precipitations  Wind > 20 kt






- Airport Elevation : 21 ft


KMTN - Martin State

CURRENT METAR :
  • 061454Z 20003KT 10SM SCT120 06/00 A3017

EXPIRED METARs :
  • 061354Z 00000KT SCT150 03/01 A3018
  • 061254Z 00000KT 10SM BKN150 M01/M01 A3018

TAF KMTN
Valid from the 06 at 12:00 until the 07 at 12:00 UTC


061127Z 0612/0712 17005KT P6SM SCT150
FM061700 20011G21KT P6SM BKN080
FM062200 23009KT P6SM OVC060
FM070300 32011G19KT P6SM SCT045



MET'MAP, your aeronautical weather chart ! - Copyright ORBIFLY December 2007 - Disclaimer

ORBIFLY MET'MAP TEAM :

Programming & Development : Alexandra Zaïnal
Concept & original design : Baudouin d'Aumeries
Assistance for programming : Marc-Olivier Méhu
Technical & hardware support : Manuel Goepfert

Contact : metmap@orbifly.com




SOURCES & CREDITS :

   NOAA       Earth
Advisory